Time;durP1;ratioP1;P1;durP2;ratioP2;P2;SDS_P1;SDS_P2;PMS_P1;PMS_P2;Temp;Humidity;BMP_temperature;BMP_pressure;BME280_temperature;BME280_humidity;BME280_pressure;Samples;Min_cycle;Max_cycle;Signal;HPM_P1;HPM_P2
2021/03/21 00:01:49;;;;;;;11.90;7.40;;;;;;;;;;5052370;28;37544;-82
2021/03/21 00:04:16;;;;;;;12.53;7.70;;;;;;;;;;5069000;28;37809;-82
2021/03/21 00:06:43;;;;;;;8.80;7.20;;;;;;;;;;5051584;28;39335;-82
2021/03/21 00:09:10;;;;;;;9.47;7.20;;;;;;;;;;5065798;28;38813;-82
2021/03/21 00:11:37;;;;;;;13.10;7.67;;;;;;;;;;5051589;28;37215;-82
2021/03/21 00:14:04;;;;;;;12.10;8.30;;;;;;;;;;5067145;28;38975;-82
2021/03/21 00:16:31;;;;;;;12.13;9.00;;;;;;;;;;5070731;28;39473;-81
2021/03/21 00:18:57;;;;;;;17.27;10.23;;;;;;;;;;5066529;28;39871;-82
2021/03/21 00:21:24;;;;;;;14.13;9.87;;;;;;;;;;5049393;28;37568;-81
2021/03/21 00:23:51;;;;;;;17.60;11.63;;;;;;;;;;5078751;28;39448;-83
2021/03/21 00:26:23;;;;;;;20.00;12.10;;;;;;;;;;5080467;28;39117;-82
2021/03/21 00:28:56;;;;;;;20.08;12.45;;;;;;;;;;5078630;28;37813;-82
2021/03/21 00:31:23;;;;;;;17.57;12.60;;;;;;;;;;5065817;28;35638;-83
2021/03/21 00:33:49;;;;;;;21.97;13.23;;;;;;;;;;5066366;28;40668;-82
2021/03/21 00:36:16;;;;;;;20.87;12.97;;;;;;;;;;5066288;28;38609;-82
2021/03/21 00:38:51;;;;;;;18.90;13.33;;;;;;;;;;5084486;28;38591;-82
2021/03/21 00:41:20;;;;;;;22.77;13.77;;;;;;;;;;5066797;28;35756;-83
2021/03/21 00:43:47;;;;;;;25.70;14.53;;;;;;;;;;5085470;28;38544;-82
2021/03/21 00:46:14;;;;;;;28.70;16.27;;;;;;;;;;5083391;28;38730;-82
2021/03/21 00:48:43;;;;;;;20.77;13.90;;;;;;;;;;5084617;28;37393;-82
2021/03/21 00:51:17;;;;;;;27.00;16.77;;;;;;;;;;5067349;28;38366;-82
2021/03/21 00:53:43;;;;;;;25.07;15.33;;;;;;;;;;5062565;28;41700;-81
2021/03/21 00:56:11;;;;;;;26.10;15.63;;;;;;;;;;5083392;28;40404;-83
2021/03/21 00:58:37;;;;;;;22.70;14.40;;;;;;;;;;5053946;28;41147;-81
2021/03/21 01:01:04;;;;;;;24.67;15.73;;;;;;;;;;5048262;28;37727;-82
2021/03/21 01:03:31;;;;;;;25.30;15.23;;;;;;;;;;5047152;28;39769;-81
2021/03/21 01:06:01;;;;;;;24.30;15.87;;;;;;;;;;5050172;28;38121;-81
2021/03/21 01:08:38;;;;;;;25.57;14.33;;;;;;;;;;5050004;28;49062;-82
2021/03/21 01:11:06;;;;;;;21.47;12.83;;;;;;;;;;5047326;28;36221;-81
2021/03/21 01:13:34;;;;;;;22.87;13.80;;;;;;;;;;5045933;28;37664;-81
2021/03/21 01:16:02;;;;;;;22.23;14.00;;;;;;;;;;5044172;28;40945;-81
2021/03/21 01:18:31;;;;;;;21.13;13.57;;;;;;;;;;5060306;28;46892;-81
2021/03/21 01:20:58;;;;;;;22.00;14.03;;;;;;;;;;5061496;28;37966;-81
2021/03/21 01:23:25;;;;;;;23.17;13.90;;;;;;;;;;5062178;28;38089;-81
2021/03/21 01:25:52;;;;;;;24.50;14.27;;;;;;;;;;5061391;28;38297;-81
2021/03/21 01:28:29;;;;;;;24.20;14.53;;;;;;;;;;5057605;28;37654;-81
2021/03/21 01:30:56;;;;;;;23.90;14.43;;;;;;;;;;5060131;28;35975;-81
2021/03/21 01:33:26;;;;;;;24.07;15.20;;;;;;;;;;5059386;28;38869;-81
2021/03/21 01:35:52;;;;;;;25.03;14.70;;;;;;;;;;5045840;28;40005;-81
2021/03/21 01:38:19;;;;;;;28.20;16.23;;;;;;;;;;5044542;28;37106;-81
2021/03/21 01:40:46;;;;;;;28.23;14.70;;;;;;;;;;5061674;28;37636;-81
2021/03/21 01:43:14;;;;;;;29.07;15.17;;;;;;;;;;5044201;28;38981;-81
2021/03/21 01:45:47;;;;;;;28.70;16.53;;;;;;;;;;5043943;28;39044;-81
2021/03/21 01:48:16;;;;;;;29.70;16.33;;;;;;;;;;5043743;28;38318;-81
2021/03/21 01:51:02;;;;;;;28.70;16.37;;;;;;;;;;5062015;28;38352;-82
2021/03/21 01:53:32;;;;;;;27.07;16.30;;;;;;;;;;5066713;28;47184;-83
2021/03/21 01:55:59;;;;;;;27.40;15.57;;;;;;;;;;5070603;28;39107;-82
2021/03/21 01:58:28;;;;;;;31.73;16.53;;;;;;;;;;5070103;28;39998;-82
2021/03/21 02:01:24;;;;;;;26.60;15.67;;;;;;;;;;5050826;28;37959;-82
2021/03/21 02:03:51;;;;;;;31.50;17.43;;;;;;;;;;5033075;28;47422;-81
2021/03/21 02:06:33;;;;;;;31.00;17.87;;;;;;;;;;5069406;28;39597;-81
2021/03/21 02:09:08;;;;;;;33.60;17.80;;;;;;;;;;5052483;28;39682;-81
2021/03/21 02:11:39;;;;;;;29.43;16.33;;;;;;;;;;5068759;28;47252;-82
2021/03/21 02:14:10;;;;;;;32.53;17.63;;;;;;;;;;5052814;28;37368;-82
2021/03/21 02:16:40;;;;;;;31.87;16.73;;;;;;;;;;5057332;28;39191;-81
2021/03/21 02:19:09;;;;;;;33.93;18.53;;;;;;;;;;5060481;28;39389;-82
2021/03/21 02:21:38;;;;;;;35.40;18.17;;;;;;;;;;5055582;28;38573;-82
2021/03/21 02:24:14;;;;;;;34.43;18.37;;;;;;;;;;5060540;28;38991;-81
2021/03/21 02:26:56;;;;;;;39.73;18.40;;;;;;;;;;5056354;28;39862;-81
2021/03/21 02:29:26;;;;;;;40.07;19.77;;;;;;;;;;5048074;28;39424;-81
2021/03/21 02:32:13;;;;;;;37.83;19.53;;;;;;;;;;5040508;28;37882;-81
2021/03/21 02:34:57;;;;;;;40.13;21.07;;;;;;;;;;5011888;28;48397;-80
2021/03/21 02:37:24;;;;;;;40.47;20.80;;;;;;;;;;5037865;28;39434;-81
2021/03/21 02:39:56;;;;;;;38.40;20.53;;;;;;;;;;5036844;28;39082;-81
2021/03/21 02:42:23;;;;;;;;;;;;;;;;;;5057868;28;37257;-80
2021/03/21 02:44:52;;;;;;;40.63;21.20;;;;;;;;;;5058336;28;39826;-81
2021/03/21 02:47:22;;;;;;;42.20;21.30;;;;;;;;;;5046191;28;39494;-81
2021/03/21 02:49:50;;;;;;;42.47;21.83;;;;;;;;;;5044967;28;38092;-82
2021/03/21 02:52:22;;;;;;;45.17;22.80;;;;;;;;;;5038559;28;38643;-78
2021/03/21 02:54:58;;;;;;;39.80;22.42;;;;;;;;;;5064023;28;39692;-80
2021/03/21 02:57:26;;;;;;;49.27;25.27;;;;;;;;;;5063068;28;40195;-81
2021/03/21 02:59:58;;;;;;;51.70;24.93;;;;;;;;;;5063832;28;39247;-82
2021/03/21 03:02:45;;;;;;;53.13;25.40;;;;;;;;;;5048630;28;37714;-82
2021/03/21 03:05:12;;;;;;;46.27;22.93;;;;;;;;;;5035660;28;37664;-82
2021/03/21 03:07:45;;;;;;;50.17;24.00;;;;;;;;;;5047611;28;39716;-80
2021/03/21 03:10:14;;;;;;;48.13;23.20;;;;;;;;;;5044837;28;39118;-80
2021/03/21 03:12:45;;;;;;;53.47;25.97;;;;;;;;;;5045751;28;37693;-79
2021/03/21 03:15:13;;;;;;;49.90;27.37;;;;;;;;;;5051417;28;39592;-82
2021/03/21 03:17:42;;;;;;;44.83;26.43;;;;;;;;;;5053361;28;37190;-80
2021/03/21 03:20:31;;;;;;;46.47;25.70;;;;;;;;;;5045642;28;38973;-82
2021/03/21 03:23:01;;;;;;;49.13;27.57;;;;;;;;;;5034913;28;36322;-81
2021/03/21 03:25:35;;;;;;;49.70;28.40;;;;;;;;;;5044899;28;47050;-82
2021/03/21 03:28:09;;;;;;;51.13;29.13;;;;;;;;;;5063515;28;39865;-81
2021/03/21 03:30:35;;;;;;;50.87;28.27;;;;;;;;;;5063750;28;46363;-82
2021/03/21 03:33:02;;;;;;;59.53;30.93;;;;;;;;;;5045757;28;37348;-82
2021/03/21 03:35:29;;;;;;;52.23;30.50;;;;;;;;;;5066942;28;39450;-81
2021/03/21 03:37:55;;;;;;;58.30;31.93;;;;;;;;;;5067334;28;40199;-80
2021/03/21 03:40:23;;;;;;;55.97;32.10;;;;;;;;;;5052338;28;37184;-82
2021/03/21 03:43:10;;;;;;;55.60;32.53;;;;;;;;;;5053862;28;37771;-83
2021/03/21 03:45:45;;;;;;;55.03;30.93;;;;;;;;;;5056105;28;48625;-81
2021/03/21 03:48:23;;;;;;;63.93;33.17;;;;;;;;;;5050918;28;39686;-82
2021/03/21 03:50:55;;;;;;;56.00;32.80;;;;;;;;;;5052617;28;38427;-82
2021/03/21 03:53:40;;;;;;;55.10;32.43;;;;;;;;;;5051389;28;37955;-82
2021/03/21 03:56:09;;;;;;;54.17;30.57;;;;;;;;;;5065252;28;37893;-80
2021/03/21 03:58:40;;;;;;;56.87;29.27;;;;;;;;;;5058807;28;39913;-81
2021/03/21 04:01:14;;;;;;;52.77;31.03;;;;;;;;;;5046806;28;38796;-82
2021/03/21 04:03:47;;;;;;;57.77;31.10;;;;;;;;;;5057474;28;37289;-82
2021/03/21 04:06:13;;;;;;;;;;;;;;;;;;5058784;28;39113;-82
2021/03/21 04:08:45;;;;;;;50.63;29.13;;;;;;;;;;5063648;28;39308;-82
2021/03/21 04:11:32;;;;;;;48.17;28.70;;;;;;;;;;5073662;28;39484;-82
2021/03/21 04:14:02;;;;;;;49.63;26.83;;;;;;;;;;5067512;28;37030;-81
2021/03/21 04:16:31;;;;;;;36.67;23.60;;;;;;;;;;5057142;28;48017;-82
2021/03/21 04:19:04;;;;;;;35.07;20.67;;;;;;;;;;5081206;28;37860;-82
2021/03/21 04:21:36;;;;;;;29.77;17.47;;;;;;;;;;5058002;28;48345;-81
2021/03/21 04:24:14;;;;;;;20.47;12.60;;;;;;;;;;5080274;28;35883;-83
2021/03/21 04:26:44;;;;;;;19.10;9.60;;;;;;;;;;5081448;22;39414;-77
2021/03/21 04:29:17;;;;;;;16.53;8.70;;;;;;;;;;5058739;28;37484;-77
2021/03/21 04:31:44;;;;;;;13.35;7.72;;;;;;;;;;5072586;28;37390;-77
2021/03/21 04:34:11;;;;;;;19.17;7.70;;;;;;;;;;5061689;28;35746;-77
2021/03/21 04:36:39;;;;;;;13.30;6.40;;;;;;;;;;5061953;28;37847;-77
2021/03/21 04:39:11;;;;;;;16.77;6.47;;;;;;;;;;5074179;28;38820;-76
2021/03/21 04:41:49;;;;;;;17.52;6.40;;;;;;;;;;5061664;28;38973;-77
2021/03/21 04:44:27;;;;;;;10.27;4.40;;;;;;;;;;5072841;28;37467;-77
2021/03/21 04:47:19;;;;;;;14.83;4.57;;;;;;;;;;5059528;28;38763;-77
2021/03/21 04:49:46;;;;;;;11.57;5.05;;;;;;;;;;5070177;28;47063;-77
2021/03/21 04:52:16;;;;;;;13.17;4.90;;;;;;;;;;5058384;28;37591;-76
2021/03/21 04:54:45;;;;;;;11.00;4.50;;;;;;;;;;5074566;28;36308;-77
2021/03/21 04:57:17;;;;;;;10.87;3.90;;;;;;;;;;5063982;28;39703;-77
2021/03/21 04:59:44;;;;;;;11.18;3.92;;;;;;;;;;5071940;28;37485;-77
2021/03/21 05:02:13;;;;;;;13.37;4.37;;;;;;;;;;5055133;28;39786;-77
2021/03/21 05:04:59;;;;;;;13.93;4.10;;;;;;;;;;5058112;28;36144;-77
2021/03/21 05:07:29;;;;;;;9.87;3.70;;;;;;;;;;5060500;28;40823;-77
2021/03/21 05:10:00;;;;;;;9.90;3.53;;;;;;;;;;5057830;28;37751;-77
2021/03/21 05:12:33;;;;;;;11.53;3.17;;;;;;;;;;5060149;28;37096;-77
2021/03/21 05:15:15;;;;;;;11.52;2.85;;;;;;;;;;5058310;28;34396;-77
2021/03/21 05:17:49;;;;;;;11.00;2.53;;;;;;;;;;5060147;28;48890;-77
2021/03/21 05:20:35;;;;;;;13.17;1.97;;;;;;;;;;5058404;28;39777;-77
2021/03/21 05:23:09;;;;;;;11.20;2.73;;;;;;;;;;5065156;28;38591;-77
2021/03/21 05:25:37;;;;;;;11.33;1.80;;;;;;;;;;5061476;28;36813;-79
2021/03/21 05:28:09;;;;;;;8.73;2.27;;;;;;;;;;5058191;28;40095;-76
2021/03/21 05:30:37;;;;;;;15.75;2.53;;;;;;;;;;5074638;28;39043;-77
2021/03/21 05:33:04;;;;;;;9.67;2.07;;;;;;;;;;5073479;28;36791;-76
2021/03/21 05:35:35;;;;;;;9.93;2.10;;;;;;;;;;5059341;27;36952;-76
2021/03/21 05:38:01;;;;;;;11.23;1.80;;;;;;;;;;5073883;28;39045;-77
2021/03/21 05:40:33;;;;;;;8.67;1.30;;;;;;;;;;5055280;28;46864;-76
2021/03/21 05:43:12;;;;;;;9.40;1.83;;;;;;;;;;5077068;28;37124;-79
2021/03/21 05:45:53;;;;;;;9.47;2.03;;;;;;;;;;5061887;28;49218;-78
2021/03/21 05:48:38;;;;;;;8.73;1.97;;;;;;;;;;5067721;28;39272;-79
2021/03/21 05:51:10;;;;;;;11.13;2.10;;;;;;;;;;5063122;28;40092;-77
2021/03/21 05:53:46;;;;;;;12.73;1.67;;;;;;;;;;5064519;28;38027;-79
2021/03/21 05:56:18;;;;;;;15.63;2.07;;;;;;;;;;5067838;28;37331;-77
2021/03/21 05:59:03;;;;;;;10.57;1.98;;;;;;;;;;5067828;28;37390;-79
2021/03/21 06:01:44;;;;;;;9.63;1.90;;;;;;;;;;5067480;28;48231;-79
2021/03/21 06:04:37;;;;;;;6.33;1.50;;;;;;;;;;5070268;28;38297;-79
2021/03/21 06:07:06;;;;;;;9.20;1.70;;;;;;;;;;5078077;28;35511;-79
2021/03/21 06:10:11;;;;;;;11.93;1.93;;;;;;;;;;5064005;28;37541;-79
2021/03/21 06:12:47;;;;;;;7.50;2.00;;;;;;;;;;5021889;28;45693;-78
2021/03/21 06:15:13;;;;;;;9.73;1.40;;;;;;;;;;5014029;28;37643;-78
2021/03/21 06:17:40;;;;;;;14.73;1.97;;;;;;;;;;5040496;28;36586;-78
2021/03/21 06:20:29;;;;;;;11.93;2.60;;;;;;;;;;5061509;28;39889;-78
2021/03/21 06:23:14;;;;;;;9.73;1.50;;;;;;;;;;5050920;28;38937;-78
2021/03/21 06:25:41;;;;;;;6.77;2.13;;;;;;;;;;5060280;28;48652;-78
2021/03/21 06:28:31;;;;;;;14.90;2.40;;;;;;;;;;5056439;28;37326;-78
2021/03/21 06:31:09;;;;;;;10.50;2.50;;;;;;;;;;5059483;28;38827;-78
2021/03/21 06:33:54;;;;;;;10.80;2.00;;;;;;;;;;5062105;28;48746;-78
2021/03/21 06:36:29;;;;;;;12.60;2.47;;;;;;;;;;5058712;28;39621;-78
2021/03/21 06:39:14;;;;;;;16.50;2.73;;;;;;;;;;5075253;28;37245;-79
2021/03/21 06:41:50;;;;;;;10.67;2.60;;;;;;;;;;5073430;28;47271;-78
2021/03/21 06:44:35;;;;;;;16.73;2.60;;;;;;;;;;5073645;28;38756;-78
2021/03/21 06:47:02;;;;;;;24.17;3.10;;;;;;;;;;5056850;28;38229;-78
2021/03/21 06:49:58;;;;;;;15.40;2.80;;;;;;;;;;5074155;28;37974;-78
2021/03/21 06:52:27;;;;;;;25.97;2.33;;;;;;;;;;4986141;28;37684;-78
2021/03/21 06:55:02;;;;;;;14.83;3.10;;;;;;;;;;5054303;28;37886;-78
2021/03/21 06:57:46;;;;;;;16.70;2.80;;;;;;;;;;5054453;28;38203;-78
2021/03/21 07:00:25;;;;;;;20.50;2.80;;;;;;;;;;5057362;28;37962;-78
2021/03/21 07:03:10;;;;;;;15.87;2.10;;;;;;;;;;5058262;28;41708;-78
2021/03/21 07:05:46;;;;;;;21.33;3.13;;;;;;;;;;5072588;28;47017;-78
2021/03/21 07:08:18;;;;;;;13.00;2.97;;;;;;;;;;5055037;28;38434;-78
2021/03/21 07:10:57;;;;;;;13.18;2.47;;;;;;;;;;5057879;28;36771;-78
2021/03/21 07:13:35;;;;;;;11.97;2.80;;;;;;;;;;5067511;28;38240;-77
2021/03/21 07:16:31;;;;;;;17.17;2.80;;;;;;;;;;5078202;28;38063;-78
2021/03/21 07:19:16;;;;;;;18.73;2.97;;;;;;;;;;4987186;28;47417;-78
2021/03/21 07:22:01;;;;;;;18.57;3.67;;;;;;;;;;5064098;28;47343;-80
2021/03/21 07:24:46;;;;;;;12.57;2.53;;;;;;;;;;5063495;28;48899;-79
2021/03/21 07:27:16;;;;;;;11.43;2.57;;;;;;;;;;5063728;28;39548;-79
2021/03/21 07:29:45;;;;;;;17.43;3.07;;;;;;;;;;5066730;28;38169;-78
2021/03/21 07:32:30;;;;;;;19.73;2.80;;;;;;;;;;5080073;28;35676;-78
2021/03/21 07:34:59;;;;;;;16.00;2.63;;;;;;;;;;5065628;28;37567;-79
2021/03/21 07:37:43;;;;;;;17.27;2.40;;;;;;;;;;5077340;28;38168;-78
2021/03/21 07:40:10;;;;;;;20.00;3.67;;;;;;;;;;5064981;27;38563;-80
2021/03/21 07:42:45;;;;;;;11.77;2.47;;;;;;;;;;5066607;28;37787;-77
2021/03/21 07:45:18;;;;;;;15.37;2.67;;;;;;;;;;5062885;28;38933;-80
2021/03/21 07:47:56;;;;;;;11.47;2.23;;;;;;;;;;5061611;28;38984;-78
2021/03/21 07:50:26;;;;;;;16.27;2.20;;;;;;;;;;5076628;28;37341;-79
2021/03/21 07:53:10;;;;;;;8.17;1.90;;;;;;;;;;5070361;28;37127;-78
2021/03/21 07:55:37;;;;;;;16.07;2.40;;;;;;;;;;5059722;28;47227;-78
2021/03/21 07:58:05;;;;;;;16.00;2.23;;;;;;;;;;5055130;28;37845;-81
2021/03/21 08:00:32;;;;;;;14.03;2.33;;;;;;;;;;5048976;28;37468;-78
2021/03/21 08:03:17;;;;;;;14.00;3.17;;;;;;;;;;5065072;28;35155;-78
2021/03/21 08:05:43;;;;;;;26.53;3.20;;;;;;;;;;5062768;28;48736;-78
2021/03/21 08:08:12;;;;;;;18.20;3.37;;;;;;;;;;5063527;28;39526;-77
2021/03/21 08:10:40;;;;;;;20.90;3.20;;;;;;;;;;5046424;28;39110;-77
2021/03/21 08:13:10;;;;;;;21.30;3.13;;;;;;;;;;5061387;28;37623;-77
2021/03/21 08:15:38;;;;;;;26.50;3.10;;;;;;;;;;5065042;28;38712;-77
2021/03/21 08:18:07;;;;;;;19.33;3.20;;;;;;;;;;5062662;28;38623;-78
2021/03/21 08:20:37;;;;;;;19.03;3.37;;;;;;;;;;5057698;28;38031;-78
2021/03/21 08:23:10;;;;;;;24.43;3.40;;;;;;;;;;5050953;28;37191;-78
2021/03/21 08:25:37;;;;;;;13.75;2.35;;;;;;;;;;5060565;28;38619;-78
2021/03/21 08:28:03;;;;;;;19.97;3.03;;;;;;;;;;5063792;28;37724;-79
2021/03/21 08:30:50;;;;;;;18.23;2.50;;;;;;;;;;5067447;28;38412;-78
2021/03/21 08:33:27;;;;;;;19.23;2.93;;;;;;;;;;5064022;28;36815;-78
2021/03/21 08:36:17;;;;;;;19.93;2.67;;;;;;;;;;5064789;28;38714;-78
2021/03/21 08:39:02;;;;;;;14.33;2.40;;;;;;;;;;5044872;28;47235;-77
2021/03/21 08:41:29;;;;;;;17.80;3.00;;;;;;;;;;5063307;28;47448;-78
2021/03/21 08:44:00;;;;;;;14.03;2.80;;;;;;;;;;5065504;28;36917;-77
2021/03/21 08:46:27;;;;;;;16.47;3.13;;;;;;;;;;5063654;28;40061;-77
2021/03/21 08:49:01;;;;;;;16.10;2.77;;;;;;;;;;5063229;28;38218;-78
2021/03/21 08:51:30;;;;;;;22.63;3.47;;;;;;;;;;5051862;28;47593;-77
2021/03/21 08:54:03;;;;;;;15.93;3.03;;;;;;;;;;5055291;28;36480;-78
2021/03/21 08:56:29;;;;;;;;;;;;;;;;;;5050401;28;47206;-77
2021/03/21 08:59:13;;;;;;;19.80;3.57;;;;;;;;;;5075267;28;40577;-78
2021/03/21 09:01:40;;;;;;;19.83;2.93;;;;;;;;;;5058868;28;47153;-78
2021/03/21 09:04:14;;;;;;;23.40;3.57;;;;;;;;;;5061803;28;36775;-77
2021/03/21 09:06:44;;;;;;;14.23;3.30;;;;;;;;;;5064997;28;37627;-78
2021/03/21 09:09:24;;;;;;;24.77;3.23;;;;;;;;;;5061841;28;37628;-78
2021/03/21 09:11:58;;;;;;;15.20;2.90;;;;;;;;;;5065825;28;39110;-78
2021/03/21 09:14:31;;;;;;;20.23;2.87;;;;;;;;;;5064655;28;36817;-77
2021/03/21 09:16:57;;;;;;;18.13;3.77;;;;;;;;;;5065629;28;40048;-77
2021/03/21 09:19:27;;;;;;;20.80;2.97;;;;;;;;;;5064738;28;38966;-77
2021/03/21 09:21:53;;;;;;;19.30;3.93;;;;;;;;;;5073372;28;37652;-77
2021/03/21 09:24:46;;;;;;;15.53;2.30;;;;;;;;;;5058508;28;35636;-78
2021/03/21 09:27:32;;;;;;;25.92;3.13;;;;;;;;;;5061952;28;39025;-79
2021/03/21 09:29:59;;;;;;;22.27;3.50;;;;;;;;;;5064980;27;39694;-77
2021/03/21 09:32:29;;;;;;;20.83;3.60;;;;;;;;;;5064823;28;37337;-77
2021/03/21 09:35:14;;;;;;;27.23;4.10;;;;;;;;;;5064029;28;35968;-77
2021/03/21 09:37:41;;;;;;;25.03;3.40;;;;;;;;;;5061399;28;47210;-80
2021/03/21 09:40:26;;;;;;;22.10;4.13;;;;;;;;;;5071658;28;39141;-81
2021/03/21 09:42:52;;;;;;;24.00;4.57;;;;;;;;;;5057908;28;38228;-81
2021/03/21 09:45:19;;;;;;;30.87;4.53;;;;;;;;;;5070565;28;35204;-81
2021/03/21 09:48:02;;;;;;;24.83;4.13;;;;;;;;;;5066789;28;39250;-80
2021/03/21 09:50:47;;;;;;;18.42;3.33;;;;;;;;;;5060186;28;47315;-79
2021/03/21 09:53:40;;;;;;;21.77;3.40;;;;;;;;;;5062390;28;38041;-80
2021/03/21 09:56:11;;;;;;;18.67;3.10;;;;;;;;;;5057117;28;36731;-80
2021/03/21 09:58:37;;;;;;;19.20;3.27;;;;;;;;;;5072446;28;37351;-80
2021/03/21 10:01:10;;;;;;;21.57;3.53;;;;;;;;;;5059329;28;38561;-80
2021/03/21 10:03:37;;;;;;;21.20;4.50;;;;;;;;;;5064706;28;38399;-80
2021/03/21 10:06:03;;;;;;;28.37;4.17;;;;;;;;;;5069853;28;36983;-79
2021/03/21 10:08:39;;;;;;;21.93;4.43;;;;;;;;;;5062044;28;37776;-80
2021/03/21 10:11:09;;;;;;;20.53;3.40;;;;;;;;;;5064623;28;39597;-79
2021/03/21 10:13:40;;;;;;;25.23;4.30;;;;;;;;;;5056657;28;38570;-80
2021/03/21 10:16:15;;;;;;;16.10;3.23;;;;;;;;;;5065606;28;37077;-79
2021/03/21 10:18:46;;;;;;;22.57;3.83;;;;;;;;;;5066423;28;37880;-79
2021/03/21 10:21:25;;;;;;;27.00;4.07;;;;;;;;;;5066882;28;37544;-79
2021/03/21 10:23:52;;;;;;;20.83;4.23;;;;;;;;;;5065480;28;37637;-78
2021/03/21 10:26:19;;;;;;;24.47;5.37;;;;;;;;;;5058143;28;37425;-78
2021/03/21 10:28:47;;;;;;;24.08;3.65;;;;;;;;;;5068426;28;38779;-78
2021/03/21 10:31:23;;;;;;;20.13;4.17;;;;;;;;;;5065730;28;40262;-78
2021/03/21 10:33:53;;;;;;;22.70;4.20;;;;;;;;;;5065041;28;38083;-78
2021/03/21 10:36:41;;;;;;;20.85;4.30;;;;;;;;;;5066363;28;36736;-78
2021/03/21 10:39:07;;;;;;;23.75;4.32;;;;;;;;;;5066852;28;38577;-78
2021/03/21 10:41:53;;;;;;;22.37;4.60;;;;;;;;;;5065714;28;39487;-79
2021/03/21 10:44:44;;;;;;;22.23;5.10;;;;;;;;;;5063049;28;38358;-78
2021/03/21 10:47:22;;;;;;;22.10;4.00;;;;;;;;;;5054255;28;35702;-79
2021/03/21 10:50:04;;;;;;;21.30;4.05;;;;;;;;;;5067151;28;38744;-81
2021/03/21 10:52:37;;;;;;;20.13;4.03;;;;;;;;;;5064784;28;47787;-79
2021/03/21 10:57:43;;;;;;;32.13;5.77;;;;;;;;;;5060498;28;36823;-78
2021/03/21 11:00:17;;;;;;;22.07;3.90;;;;;;;;;;5059096;28;39612;-78
2021/03/21 11:03:05;;;;;;;26.13;3.90;;;;;;;;;;5062007;28;39053;-80
2021/03/21 11:05:39;;;;;;;30.17;5.07;;;;;;;;;;5054772;28;47260;-77
2021/03/21 11:08:17;;;;;;;31.97;5.10;;;;;;;;;;5067942;28;37109;-77
2021/03/21 11:10:46;;;;;;;28.40;6.07;;;;;;;;;;5067460;28;39777;-78
2021/03/21 11:13:27;;;;;;;29.27;4.90;;;;;;;;;;5066709;28;39175;-79
2021/03/21 11:15:53;;;;;;;30.40;5.60;;;;;;;;;;5062134;28;38875;-80
2021/03/21 11:18:24;;;;;;;26.20;5.60;;;;;;;;;;5062476;28;35549;-78
2021/03/21 11:21:05;;;;;;;31.40;6.07;;;;;;;;;;5073058;28;38387;-78
2021/03/21 11:23:35;;;;;;;32.53;5.10;;;;;;;;;;5056139;28;48976;-78
2021/03/21 11:26:17;;;;;;;28.73;4.83;;;;;;;;;;5056085;28;38236;-79
2021/03/21 11:28:45;;;;;;;23.10;4.57;;;;;;;;;;5071161;28;47228;-78
2021/03/21 11:31:15;;;;;;;33.17;4.67;;;;;;;;;;5064207;28;39660;-79
2021/03/21 11:33:45;;;;;;;23.70;3.73;;;;;;;;;;5076921;28;38505;-79
2021/03/21 11:36:18;;;;;;;22.23;4.00;;;;;;;;;;5058725;28;39856;-78
2021/03/21 11:38:45;;;;;;;31.98;4.70;;;;;;;;;;5056052;28;36736;-77
2021/03/21 11:41:30;;;;;;;25.83;4.70;;;;;;;;;;5052946;28;39057;-77
2021/03/21 11:44:18;;;;;;;26.55;4.97;;;;;;;;;;5058490;28;37666;-77
2021/03/21 11:46:45;;;;;;;21.07;4.83;;;;;;;;;;5071908;28;47429;-77
2021/03/21 11:49:12;;;;;;;23.30;4.35;;;;;;;;;;5070779;28;36011;-77
2021/03/21 11:51:39;;;;;;;26.30;4.68;;;;;;;;;;5057459;28;37960;-77
2021/03/21 11:54:06;;;;;;;22.40;4.15;;;;;;;;;;5057632;28;38847;-78
2021/03/21 11:56:35;;;;;;;24.83;4.75;;;;;;;;;;5062370;28;38013;-77
2021/03/21 11:59:14;;;;;;;19.85;5.10;;;;;;;;;;5063911;28;36864;-77
2021/03/21 12:01:56;;;;;;;29.42;4.72;;;;;;;;;;5062961;28;48802;-76
2021/03/21 12:04:30;;;;;;;34.45;5.97;;;;;;;;;;5060630;28;38624;-77
2021/03/21 12:07:00;;;;;;;30.10;5.32;;;;;;;;;;5066422;28;37633;-78
2021/03/21 12:09:27;;;;;;;34.30;5.25;;;;;;;;;;5061431;28;47248;-78
2021/03/21 12:11:54;;;;;;;23.95;4.68;;;;;;;;;;5079693;28;37856;-78
2021/03/21 12:14:32;;;;;;;21.40;4.63;;;;;;;;;;5065176;27;39016;-79
2021/03/21 12:17:00;;;;;;;32.45;4.88;;;;;;;;;;5074437;28;39358;-80
2021/03/21 12:19:26;;;;;;;36.15;5.63;;;;;;;;;;5068215;28;35923;-79
2021/03/21 12:21:54;;;;;;;28.23;4.90;;;;;;;;;;5083622;28;36655;-78
2021/03/21 12:24:21;;;;;;;28.10;5.07;;;;;;;;;;5055282;28;38555;-78
2021/03/21 12:26:50;;;;;;;21.35;4.75;;;;;;;;;;5055396;28;39663;-78
2021/03/21 12:29:23;;;;;;;37.17;5.45;;;;;;;;;;5078900;28;36332;-79
2021/03/21 12:31:51;;;;;;;28.13;4.95;;;;;;;;;;5069894;28;20559;-77
2021/03/21 12:34:23;;;;;;;26.10;4.67;;;;;;;;;;5063825;28;39337;-78
2021/03/21 12:37:04;;;;;;;30.52;5.38;;;;;;;;;;5064866;28;37309;-79
2021/03/21 12:39:36;;;;;;;30.97;4.63;;;;;;;;;;5062412;28;47394;-79
2021/03/21 12:42:02;;;;;;;24.02;4.72;;;;;;;;;;5068963;28;39475;-78
2021/03/21 12:44:30;;;;;;;26.47;4.50;;;;;;;;;;5068015;28;38747;-79
2021/03/21 12:46:57;;;;;;;23.20;4.40;;;;;;;;;;5064281;28;38638;-81
2021/03/21 12:49:41;;;;;;;31.33;4.17;;;;;;;;;;5067793;28;35792;-79
2021/03/21 12:52:10;;;;;;;26.23;4.67;;;;;;;;;;5080178;28;37546;-80
2021/03/21 12:54:37;;;;;;;24.70;4.23;;;;;;;;;;5083411;28;38745;-79
2021/03/21 12:57:03;;;;;;;26.37;4.90;;;;;;;;;;5080844;28;37241;-77
2021/03/21 12:59:30;;;;;;;24.73;4.47;;;;;;;;;;5062746;28;36004;-78
2021/03/21 13:01:57;;;;;;;27.80;5.07;;;;;;;;;;5068521;28;38292;-78
2021/03/21 13:04:23;;;;;;;22.60;4.33;;;;;;;;;;5060919;28;38115;-79
2021/03/21 13:06:50;;;;;;;29.33;5.00;;;;;;;;;;5071182;28;38472;-82
2021/03/21 13:09:16;;;;;;;23.43;4.10;;;;;;;;;;5065815;28;37122;-79
2021/03/21 13:11:43;;;;;;;22.70;4.60;;;;;;;;;;5061140;28;37672;-78
2021/03/21 13:14:09;;;;;;;24.30;4.33;;;;;;;;;;5063735;28;39075;-80
2021/03/21 13:16:35;;;;;;;34.10;5.50;;;;;;;;;;5055455;28;38760;-79
2021/03/21 13:19:02;;;;;;;32.50;4.93;;;;;;;;;;5081135;28;35853;-78
2021/03/21 13:21:28;;;;;;;26.17;4.53;;;;;;;;;;5079803;28;37765;-80
2021/03/21 13:23:55;;;;;;;24.77;4.85;;;;;;;;;;5055244;27;38540;-79
2021/03/21 13:26:21;;;;;;;32.20;5.10;;;;;;;;;;5053996;28;40403;-79
2021/03/21 13:28:47;;;;;;;25.50;4.67;;;;;;;;;;5055533;28;35970;-79
2021/03/21 13:31:14;;;;;;;27.93;5.53;;;;;;;;;;5066214;28;37541;-79
2021/03/21 13:33:40;;;;;;;24.87;4.73;;;;;;;;;;5062020;28;40644;-79
2021/03/21 13:36:08;;;;;;;26.57;4.47;;;;;;;;;;5066903;28;38738;-81
2021/03/21 13:38:36;;;;;;;21.47;4.57;;;;;;;;;;5063944;27;37674;-78
2021/03/21 13:41:06;;;;;;;23.80;4.30;;;;;;;;;;5063315;28;39195;-77
2021/03/21 13:43:33;;;;;;;20.17;4.53;;;;;;;;;;5067992;28;47720;-78
2021/03/21 13:46:00;;;;;;;27.23;5.13;;;;;;;;;;5067876;28;37375;-79
2021/03/21 13:48:27;;;;;;;27.50;4.83;;;;;;;;;;5067794;28;35477;-78
2021/03/21 13:50:53;;;;;;;20.50;4.37;;;;;;;;;;5067019;28;38058;-78
2021/03/21 13:53:21;;;;;;;27.27;5.30;;;;;;;;;;5064011;28;39149;-78
2021/03/21 13:55:48;;;;;;;31.30;4.50;;;;;;;;;;5067953;28;39333;-78
2021/03/21 13:58:15;;;;;;;31.30;6.03;;;;;;;;;;5067021;28;36980;-80
2021/03/21 14:00:41;;;;;;;22.40;4.40;;;;;;;;;;5062791;28;40057;-79
2021/03/21 14:03:08;;;;;;;27.73;4.60;;;;;;;;;;5069376;28;39692;-79
2021/03/21 14:05:35;;;;;;;30.23;4.13;;;;;;;;;;5072801;28;37683;-78
2021/03/21 14:08:01;;;;;;;19.57;3.97;;;;;;;;;;5063982;27;36854;-78
2021/03/21 14:10:29;;;;;;;22.43;3.30;;;;;;;;;;5058287;28;47008;-78
2021/03/21 14:12:56;;;;;;;24.10;4.13;;;;;;;;;;5065483;28;38841;-78
2021/03/21 14:15:23;;;;;;;21.03;4.77;;;;;;;;;;5066621;28;38657;-77
2021/03/21 14:17:55;;;;;;;26.17;3.90;;;;;;;;;;5061220;28;37652;-79
2021/03/21 14:20:22;;;;;;;26.30;4.23;;;;;;;;;;5077950;28;39325;-79
2021/03/21 14:22:49;;;;;;;22.13;3.93;;;;;;;;;;5067895;28;38889;-79
2021/03/21 14:25:16;;;;;;;27.03;4.43;;;;;;;;;;5063000;28;39677;-79
2021/03/21 14:27:42;;;;;;;23.80;3.87;;;;;;;;;;5054136;28;47952;-81
2021/03/21 14:30:10;;;;;;;34.40;5.43;;;;;;;;;;5054240;28;38699;-81
2021/03/21 14:32:36;;;;;;;29.40;4.67;;;;;;;;;;5074354;28;36107;-81
2021/03/21 14:35:03;;;;;;;25.73;4.60;;;;;;;;;;5052213;28;38976;-81
2021/03/21 14:37:30;;;;;;;23.67;4.67;;;;;;;;;;5068300;28;36950;-82
2021/03/21 14:39:57;;;;;;;20.60;5.20;;;;;;;;;;5070987;28;38953;-82
2021/03/21 14:42:25;;;;;;;26.13;4.20;;;;;;;;;;5068949;27;39193;-82
2021/03/21 14:44:51;;;;;;;27.33;4.73;;;;;;;;;;5070021;28;39400;-81
2021/03/21 14:47:17;;;;;;;20.83;4.00;;;;;;;;;;5069697;28;36682;-80
2021/03/21 14:49:44;;;;;;;16.33;4.27;;;;;;;;;;5056525;28;37632;-80
2021/03/21 14:52:10;;;;;;;28.30;4.30;;;;;;;;;;5068301;28;39019;-79
2021/03/21 14:54:37;;;;;;;26.63;4.50;;;;;;;;;;5062973;28;40264;-80
2021/03/21 14:57:06;;;;;;;26.73;4.40;;;;;;;;;;5068829;28;36089;-81
2021/03/21 14:59:32;;;;;;;22.33;4.87;;;;;;;;;;5065224;28;40014;-81
2021/03/21 15:01:59;;;;;;;27.53;4.40;;;;;;;;;;5073806;28;38944;-79